Terminal Aerodrome Forecast
Issued by NWS

Home | Current Version | Previous Version | Text Only | Print | Product List | Glossary On
Versions: 1 2 3 4 5 6 7 8 9 10 11 12 13 14 15 16 17 18 19 20 21 22 23 24 25 26 27 28 29 30
000
FTUS44 KOUN 192320
TAFCSM
TAF
KCSM 192320Z 2000/2024 15011KT P6SM SCT050 BKN250
     FM200800 16007KT P6SM BKN025 BKN120
     FM201100 17008KT 5SM BR BKN012
     FM201700 17010KT P6SM BKN040 BKN120 PROB30 2017/2021 4SM TSRA
      BR OVC025CB=

USA.gov is the U.S. government's official web portal to all federal, state and local government web resources and services.